»·PEaware :: N13005 KSAN-KSNA

N13005 :: KSAN-KSNA

FLIGHT INFORMATION

Flight Status: Arrived
Operator: Privately registered:
United States
More flights under this callsign
Pilot: Kaloso N. (23070)
Aircraft: BOEING 737-800
(B738)
More flights by this aircraft type
Origin: KSAN San Diego Intl-Lindbergh
United States
Destination: KSNA John Wayne-Orange Co
United States
More flights between these airports :: More routes between these airports
Route: +CWARD (RNAV)-DP SLI
File this flight plan on PilotEdge
Remarks: NONE
Altitude:
(Current/Filed)
10,000ft
Speed:
(Current/Filed)
250kts
Departed: 06-Jan-20 09:52 PM
Arrived: 06-Jan-20 10:29 PM
Distance/Time
Traveled:
66nm/0:37
Distance/Time
To Go:
Arrived

Flight Plot

Page will automatically refresh every two minutes.

Flight plan parsing failed; only flown route is shown


Map Options




Map Legend


Flown Route
Filed Route
Departure Airport
Arrival Airport
Navaid (VOR, NDB)
Fix

Horizontal Profiles

Position Reports

Time Latitude Longitude Heading Altitude Ground
Speed
06-Jan-20 21:18 32.733216 -117.196882 134 18ft 0kts
06-Jan-20 21:19 32.733216 -117.196882 134 18ft 0kts
06-Jan-20 21:20 32.733216 -117.196882 134 18ft 0kts
06-Jan-20 21:21 32.733216 -117.196882 134 18ft 0kts
06-Jan-20 21:22 32.733215 -117.196882 134 18ft 0kts
06-Jan-20 21:23 32.733215 -117.196882 134 18ft 0kts
06-Jan-20 21:24 32.733215 -117.196882 134 18ft 0kts
06-Jan-20 21:25 32.733215 -117.196882 134 18ft 0kts
06-Jan-20 21:26 32.733215 -117.196882 134 18ft 0kts
06-Jan-20 21:27 32.733215 -117.196882 134 18ft 0kts
06-Jan-20 21:28 32.733215 -117.196882 134 18ft 0kts
06-Jan-20 21:29 32.733215 -117.196882 134 18ft 0kts
06-Jan-20 21:30 32.733215 -117.196882 134 18ft 0kts
06-Jan-20 21:31 32.733215 -117.196882 134 18ft 0kts
06-Jan-20 21:32 32.733215 -117.196882 134 18ft 0kts
06-Jan-20 21:33 32.733215 -117.196882 134 18ft 0kts
06-Jan-20 21:34 32.733215 -117.196882 134 18ft 0kts
06-Jan-20 21:35 32.733215 -117.196882 134 18ft 0kts
06-Jan-20 21:36 32.733215 -117.196882 134 18ft 0kts
06-Jan-20 21:37 32.733215 -117.196882 134 18ft 0kts
06-Jan-20 21:38 32.733215 -117.196882 134 18ft 0kts
06-Jan-20 21:39 32.733215 -117.196882 134 18ft 0kts
06-Jan-20 21:40 32.733215 -117.196882 134 18ft 0kts
06-Jan-20 21:41 32.733215 -117.196882 134 18ft 0kts
06-Jan-20 21:42 32.733215 -117.196882 134 18ft 0kts
06-Jan-20 21:43 32.733215 -117.196882 134 18ft 0kts
06-Jan-20 21:44 32.733215 -117.196882 134 18ft 0kts
06-Jan-20 21:45 32.733215 -117.196882 134 18ft 0kts
06-Jan-20 21:46 32.733215 -117.196882 134 18ft 0kts
06-Jan-20 21:47 32.733215 -117.196882 134 18ft 0kts
06-Jan-20 21:48 32.733293 -117.196975 134 17ft 4kts
06-Jan-20 21:49 32.733538 -117.197287 132 17ft 0kts
06-Jan-20 21:50 32.733848 -117.195168 100 20ft 26kts
06-Jan-20 21:51 32.732103 -117.187980 107 18ft 57kts
06-Jan-20 21:52 32.729965 -117.179081 106 19ft 47kts
06-Jan-20 21:53 32.729511 -117.176761 78 22ft 0kts
06-Jan-20 21:54 32.729511 -117.176761 78 22ft 0kts
06-Jan-20 21:55 32.730173 -117.176011 308 24ft 14kts
06-Jan-20 21:56 32.735670 -117.198430 286 77ft 181kts
06-Jan-20 21:57 32.751994 -117.259245 288 1238ft 234kts
06-Jan-20 21:58 32.788079 -117.319611 358 1981ft 243kts
06-Jan-20 21:59 32.835618 -117.364218 294 3704ft 263kts
06-Jan-20 22:00 32.876565 -117.437813 307 5154ft 269kts
06-Jan-20 22:01 32.924159 -117.511702 307 7015ft 277kts
06-Jan-20 22:02 32.976690 -117.593493 307 9017ft 285kts
06-Jan-20 22:03 33.029061 -117.675215 307 9691ft 287kts
06-Jan-20 22:04 33.084927 -117.751548 320 9686ft 288kts
06-Jan-20 22:05 33.149092 -117.816266 319 9689ft 288kts
06-Jan-20 22:06 33.223217 -117.870300 348 9692ft 288kts
06-Jan-20 22:07 33.312960 -117.891532 348 9689ft 288kts
06-Jan-20 22:08 33.402054 -117.915459 342 9695ft 288kts
06-Jan-20 22:09 33.489852 -117.947694 343 9418ft 290kts
06-Jan-20 22:10 33.575783 -117.978957 343 8057ft 281kts
06-Jan-20 22:11 33.652635 -118.006989 343 6310ft 280kts
06-Jan-20 22:12 33.726578 -118.034005 343 5110ft 259kts
06-Jan-20 22:13 33.782547 -118.042691 346 5019ft 258kts
06-Jan-20 22:14 33.840817 -118.062650 343 4994ft 234kts
06-Jan-20 22:15 33.893486 -118.081125 344 4999ft 235kts
06-Jan-20 22:16 33.940290 -118.060968 61 4214ft 233kts
06-Jan-20 22:17 33.945024 -118.008349 91 3337ft 230kts
06-Jan-20 22:18 33.943709 -117.956026 91 2999ft 228kts
06-Jan-20 22:19 33.932835 -117.900118 120 2978ft 216kts
06-Jan-20 22:20 33.908592 -117.852586 121 2987ft 198kts
06-Jan-20 22:21 33.885346 -117.807216 121 2981ft 198kts
06-Jan-20 22:22 33.858723 -117.765757 157 2989ft 198kts
06-Jan-20 22:23 33.816436 -117.779076 208 2960ft 157kts
06-Jan-20 22:24 33.781557 -117.801671 207 2668ft 155kts
06-Jan-20 22:25 33.745434 -117.824573 207 1615ft 147kts
06-Jan-20 22:26 33.713122 -117.845166 209 793ft 149kts
06-Jan-20 22:27 33.685051 -117.862793 207 192ft 145kts
06-Jan-20 22:28 33.670686 -117.871992 205 63ft 22kts
06-Jan-20 22:30 33.669268 -117.871731 129 63ft 0kts
06-Jan-20 22:31 33.670773 -117.869225 40 63ft 42kts
06-Jan-20 22:32 33.675544 -117.865565 27 63ft 3kts
06-Jan-20 22:33 33.675729 -117.864659 118 63ft 0kts
06-Jan-20 22:34 33.675729 -117.864659 118 63ft 0kts
06-Jan-20 22:35 33.675729 -117.864659 118 63ft 0kts

Navigation Log

Ident Type
Flight plan parsing failed, navigation log unavailable